createdAt,value
2017-10-16T00:02:16.522Z,95.90
2017-10-16T00:04:44.740Z,96.30
2017-10-16T00:07:12.161Z,96.30
2017-10-16T00:09:39.596Z,96.20
2017-10-16T00:12:07.792Z,96.20
2017-10-16T00:14:35.252Z,96.20
2017-10-16T00:17:02.688Z,96.10
2017-10-16T00:19:30.899Z,96.10
2017-10-16T00:21:58.320Z,96.10
2017-10-16T00:24:26.533Z,96.20
2017-10-16T00:26:53.968Z,96.20
2017-10-16T00:29:21.400Z,96.20
2017-10-16T00:31:49.608Z,96.10
2017-10-16T00:34:17.041Z,96.10
2017-10-16T00:36:45.256Z,96.00
2017-10-16T00:39:13.679Z,96.00
2017-10-16T00:41:41.120Z,96.00
2017-10-16T00:44:08.561Z,96.00
2017-10-16T00:46:36.004Z,96.00
2017-10-16T00:49:03.432Z,96.00
2017-10-16T00:51:30.879Z,96.00
2017-10-16T00:53:59.069Z,96.00
2017-10-16T00:56:26.519Z,95.90
2017-10-16T00:58:54.724Z,96.00
2017-10-16T01:01:22.147Z,96.00
2017-10-16T01:03:49.576Z,96.00
2017-10-16T01:06:17.022Z,96.00
2017-10-16T01:08:44.461Z,95.90
2017-10-16T01:11:11.891Z,96.10
2017-10-16T01:13:39.320Z,96.20
2017-10-16T01:16:07.533Z,96.50
2017-10-16T01:18:34.968Z,96.50
2017-10-16T01:21:02.424Z,96.60
2017-10-16T01:23:29.858Z,96.50
2017-10-16T01:25:57.284Z,96.50
2017-10-16T01:28:24.721Z,96.40
2017-10-16T01:30:52.147Z,96.30
2017-10-16T01:33:19.593Z,96.20
2017-10-16T01:35:47.784Z,96.10
2017-10-16T01:38:15.221Z,96.00
2017-10-16T01:40:43.416Z,96.00
2017-10-16T01:43:10.853Z,96.00
2017-10-16T01:45:39.043Z,96.10
2017-10-16T01:48:06.481Z,96.10
2017-10-16T01:50:34.680Z,96.00
2017-10-16T01:53:02.116Z,96.00
2017-10-16T01:55:31.309Z,95.90
2017-10-16T01:57:59.512Z,95.90
2017-10-16T02:00:27.018Z,95.90
2017-10-16T02:02:54.696Z,96.00
2017-10-16T02:05:22.109Z,96.00
2017-10-16T02:07:49.548Z,96.00
2017-10-16T02:10:16.973Z,96.10
2017-10-16T02:12:45.176Z,96.00
2017-10-16T02:15:12.610Z,96.00
2017-10-16T02:17:40.824Z,96.00
2017-10-16T02:20:08.269Z,96.00
2017-10-16T02:22:35.706Z,95.90
2017-10-16T02:25:03.913Z,95.90
2017-10-16T02:27:31.357Z,96.30
2017-10-16T02:29:58.810Z,96.10
2017-10-16T02:32:26.264Z,95.90
2017-10-16T02:34:53.691Z,96.00
2017-10-16T02:37:21.889Z,96.00
2017-10-16T02:39:49.329Z,96.20
2017-10-16T02:42:17.535Z,96.30
2017-10-16T02:44:45.236Z,96.30
2017-10-16T02:47:12.648Z,96.30
2017-10-16T02:49:40.090Z,96.10
2017-10-16T02:52:08.300Z,95.90
2017-10-16T02:54:35.746Z,95.90
2017-10-16T02:57:03.175Z,95.90
2017-10-16T02:59:31.379Z,96.00
2017-10-16T03:01:58.813Z,95.90
2017-10-16T03:04:27.026Z,96.00
2017-10-16T03:06:55.230Z,96.20
2017-10-16T03:09:22.673Z,95.90
2017-10-16T03:11:50.122Z,96.10
2017-10-16T03:14:17.554Z,96.00
2017-10-16T03:16:44.982Z,96.00
2017-10-16T03:19:13.193Z,95.90
2017-10-16T03:21:40.629Z,95.90
2017-10-16T03:24:08.084Z,96.10
2017-10-16T03:26:35.522Z,96.10
2017-10-16T03:29:03.725Z,96.20
2017-10-16T03:31:31.174Z,95.90
2017-10-16T03:33:58.617Z,95.90
2017-10-16T03:36:26.832Z,96.00
2017-10-16T03:38:54.274Z,96.00
2017-10-16T03:41:21.701Z,96.10
2017-10-16T03:43:49.902Z,95.90
2017-10-16T03:46:17.332Z,95.90
2017-10-16T03:48:45.549Z,95.70
2017-10-16T03:51:12.990Z,95.70
2017-10-16T03:53:40.425Z,95.50
2017-10-16T03:56:08.631Z,95.50
2017-10-16T03:58:36.067Z,95.50
2017-10-16T04:01:03.495Z,95.40
2017-10-16T04:03:30.924Z,95.50
2017-10-16T04:05:58.369Z,95.60
2017-10-16T04:08:25.810Z,95.60
2017-10-16T04:10:53.262Z,95.50
2017-10-16T04:13:20.685Z,95.50
2017-10-16T04:15:48.903Z,95.40
2017-10-16T04:18:16.341Z,95.70
2017-10-16T04:20:43.776Z,95.50
2017-10-16T04:23:11.977Z,95.30
2017-10-16T04:25:39.411Z,95.30
2017-10-16T04:28:07.609Z,95.50
2017-10-16T04:30:35.064Z,95.20
2017-10-16T04:33:06.082Z,95.10
2017-10-16T04:35:34.280Z,95.00
2017-10-16T04:38:01.711Z,95.00
2017-10-16T04:40:29.925Z,95.10
2017-10-16T04:42:57.357Z,95.10
2017-10-16T04:45:24.784Z,95.20
2017-10-16T04:47:52.229Z,95.10
2017-10-16T04:50:19.661Z,95.20
2017-10-16T04:52:47.092Z,95.20
2017-10-16T04:55:14.525Z,95.30
2017-10-16T04:57:42.736Z,95.10
2017-10-16T05:00:10.171Z,95.20
2017-10-16T05:02:37.609Z,95.20
2017-10-16T05:05:05.819Z,95.60
2017-10-16T05:07:33.262Z,95.50
2017-10-16T05:10:00.689Z,95.40
2017-10-16T05:12:28.123Z,95.50
2017-10-16T05:14:56.320Z,95.50
2017-10-16T05:17:23.761Z,95.50
2017-10-16T05:19:51.208Z,95.40
2017-10-16T05:22:18.644Z,95.40
2017-10-16T05:24:46.086Z,95.40
2017-10-16T05:27:13.521Z,95.40
2017-10-16T05:29:41.712Z,95.90
2017-10-16T05:32:09.155Z,95.90
2017-10-16T05:34:37.365Z,96.00
2017-10-16T05:37:04.810Z,96.00
2017-10-16T05:39:32.257Z,96.00
2017-10-16T05:41:59.697Z,95.90
2017-10-16T05:44:27.907Z,95.80
2017-10-16T05:46:55.336Z,95.80
2017-10-16T05:49:23.549Z,95.70
2017-10-16T05:51:50.985Z,95.70
2017-10-16T05:54:18.434Z,95.90
2017-10-16T05:56:45.866Z,96.00
2017-10-16T05:59:13.305Z,96.00
2017-10-16T06:01:40.728Z,95.90
2017-10-16T06:04:08.180Z,95.70
2017-10-16T06:06:35.604Z,95.80
2017-10-16T06:09:03.811Z,96.10
2017-10-16T06:11:31.245Z,96.00
2017-10-16T06:13:58.681Z,95.80
2017-10-16T06:16:26.896Z,95.90
2017-10-16T06:18:54.321Z,95.80
2017-10-16T06:21:22.533Z,95.90
2017-10-16T06:23:49.977Z,95.90
2017-10-16T06:26:17.414Z,95.80
2017-10-16T06:28:45.626Z,96.00
2017-10-16T06:31:13.070Z,96.00
2017-10-16T06:33:40.506Z,95.90
2017-10-16T06:36:07.945Z,95.90
2017-10-16T06:38:35.392Z,96.00
2017-10-16T06:41:02.819Z,95.90
2017-10-16T06:43:30.263Z,96.10
2017-10-16T06:45:57.699Z,96.30
2017-10-16T06:48:25.136Z,96.70
2017-10-16T06:50:53.353Z,96.20
2017-10-16T06:53:20.780Z,96.20
2017-10-16T06:55:48.216Z,96.10
2017-10-16T06:58:16.423Z,96.10
2017-10-16T07:00:43.860Z,96.10
2017-10-16T07:03:11.299Z,95.60
2017-10-16T07:05:38.740Z,95.90
2017-10-16T07:08:06.181Z,95.80
2017-10-16T07:10:33.631Z,95.90
2017-10-16T07:13:01.465Z,95.90
2017-10-16T07:15:28.900Z,95.90
2017-10-16T07:17:57.097Z,96.00
2017-10-16T07:20:24.541Z,96.00
2017-10-16T07:22:52.752Z,95.90
2017-10-16T07:25:20.190Z,95.90
2017-10-16T07:27:47.626Z,95.70
2017-10-16T07:30:15.837Z,95.90
2017-10-16T07:32:43.288Z,95.80
2017-10-16T07:35:10.751Z,95.80
2017-10-16T07:37:38.180Z,95.70
2017-10-16T07:40:05.619Z,95.90
2017-10-16T07:42:33.053Z,95.90
2017-10-16T07:45:00.490Z,96.40
2017-10-16T07:47:27.944Z,96.20
2017-10-16T07:49:55.372Z,96.10
2017-10-16T07:52:22.817Z,96.00
2017-10-16T07:54:51.016Z,96.00
2017-10-16T07:57:18.455Z,96.00
2017-10-16T07:59:45.894Z,96.00
2017-10-16T08:02:14.104Z,96.10
2017-10-16T08:04:41.528Z,96.10
2017-10-16T08:07:09.771Z,96.10
2017-10-16T08:09:37.200Z,96.10
2017-10-16T08:12:04.637Z,95.70
2017-10-16T08:14:32.080Z,95.90
2017-10-16T08:17:00.281Z,96.20
2017-10-16T08:19:27.713Z,96.20
2017-10-16T08:21:55.926Z,96.30
2017-10-16T08:24:23.361Z,96.20
2017-10-16T08:26:50.804Z,96.20
2017-10-16T08:29:19.010Z,96.20
2017-10-16T08:31:46.574Z,96.20
2017-10-16T08:34:14.004Z,95.50
2017-10-16T08:36:41.460Z,95.30
2017-10-16T08:39:08.901Z,95.60
2017-10-16T08:41:37.097Z,94.50
2017-10-16T08:44:04.543Z,94.60
2017-10-16T08:46:32.732Z,95.00
2017-10-16T08:49:00.186Z,95.00
2017-10-16T08:51:27.629Z,94.80
2017-10-16T08:53:55.070Z,94.90
2017-10-16T08:56:22.502Z,94.50
2017-10-16T08:58:49.936Z,94.80
2017-10-16T09:01:17.377Z,95.20
2017-10-16T09:03:44.817Z,94.50
2017-10-16T09:06:13.023Z,94.70
2017-10-16T09:08:41.460Z,94.70
2017-10-16T09:11:09.663Z,92.30
2017-10-16T09:13:37.109Z,92.30
2017-10-16T09:16:04.545Z,90.80
2017-10-16T09:18:32.750Z,90.60
2017-10-16T09:21:00.184Z,90.50
2017-10-16T09:23:28.397Z,85.10
2017-10-16T09:25:55.834Z,85.00
2017-10-16T09:28:23.270Z,82.90
2017-10-16T09:30:51.477Z,76.90
2017-10-16T09:33:18.921Z,76.70
2017-10-16T09:35:46.362Z,74.30
2017-10-16T09:38:14.578Z,70.60
2017-10-16T09:40:42.005Z,70.60
2017-10-16T09:43:09.461Z,69.70
2017-10-16T09:45:36.901Z,67.80
2017-10-16T09:48:05.111Z,65.00
2017-10-16T09:50:32.548Z,65.00
2017-10-16T09:52:59.989Z,63.90
2017-10-16T09:55:28.207Z,63.10
2017-10-16T09:57:55.639Z,63.10
2017-10-16T10:00:23.076Z,63.60
2017-10-16T10:02:51.277Z,65.40
2017-10-16T10:05:18.800Z,65.50
2017-10-16T10:07:47.009Z,63.90
2017-10-16T10:10:14.441Z,63.90
2017-10-16T10:12:42.651Z,70.10
2017-10-16T10:15:10.071Z,70.10
2017-10-16T10:17:38.273Z,66.80
2017-10-16T10:20:05.708Z,66.70
2017-10-16T10:22:33.916Z,70.50
2017-10-16T10:25:01.358Z,70.50
2017-10-16T10:27:28.802Z,71.90
2017-10-16T10:29:57.036Z,72.90
2017-10-16T10:32:24.486Z,72.80
2017-10-16T10:34:51.917Z,74.10
2017-10-16T10:37:19.362Z,73.00
2017-10-16T10:39:46.807Z,76.70
2017-10-16T10:42:14.232Z,80.20
2017-10-16T10:44:41.684Z,80.80
2017-10-16T10:47:09.127Z,77.60
2017-10-16T10:49:36.570Z,79.30
2017-10-16T10:52:04.013Z,78.30
2017-10-16T10:54:31.456Z,77.90
2017-10-16T10:56:58.887Z,77.10
2017-10-16T10:59:27.088Z,74.80
2017-10-16T11:01:54.546Z,74.70
2017-10-16T11:04:21.982Z,75.00
2017-10-16T11:06:50.191Z,75.20
2017-10-16T11:09:17.634Z,75.20
2017-10-16T11:11:45.077Z,79.20
2017-10-16T11:14:13.278Z,76.10
2017-10-16T11:16:40.721Z,76.10
2017-10-16T11:19:08.163Z,76.40
2017-10-16T11:21:36.372Z,78.90
2017-10-16T11:24:03.804Z,78.70
2017-10-16T11:26:31.243Z,78.20
2017-10-16T11:28:59.456Z,78.20
2017-10-16T11:31:26.902Z,78.20
2017-10-16T11:33:54.329Z,79.50
2017-10-16T11:36:22.547Z,81.10
2017-10-16T11:38:50.000Z,81.10
2017-10-16T11:41:17.441Z,81.20
2017-10-16T11:43:44.880Z,82.40
2017-10-16T11:46:13.110Z,85.00
2017-10-16T11:48:40.546Z,85.00
2017-10-16T11:51:07.979Z,82.20
2017-10-16T11:53:35.428Z,82.40
2017-10-16T11:56:03.646Z,83.70
2017-10-16T11:58:31.096Z,83.70
2017-10-16T12:00:58.533Z,84.20
2017-10-16T12:03:25.975Z,83.30
2017-10-16T12:05:54.178Z,83.40
2017-10-16T12:08:21.617Z,83.30
2017-10-16T12:10:49.082Z,83.60
2017-10-16T12:13:17.273Z,83.80
2017-10-16T12:15:44.713Z,83.80
2017-10-16T12:18:12.173Z,84.80
2017-10-16T12:20:39.601Z,84.10
2017-10-16T12:23:07.824Z,83.30
2017-10-16T12:25:35.254Z,83.20
2017-10-16T12:28:02.690Z,83.50
2017-10-16T12:30:30.890Z,83.50
2017-10-16T12:32:58.341Z,83.50
2017-10-16T12:35:25.778Z,83.60
2017-10-16T12:37:53.978Z,84.10
2017-10-16T12:40:21.416Z,84.10
2017-10-16T12:42:49.624Z,83.40
2017-10-16T12:45:17.062Z,84.00
2017-10-16T12:47:44.495Z,84.30
2017-10-16T12:50:12.692Z,86.20
2017-10-16T12:52:40.164Z,86.10
2017-10-16T12:55:07.594Z,85.00
2017-10-16T12:57:35.797Z,85.10
2017-10-16T13:00:03.240Z,85.10
2017-10-16T13:02:30.677Z,85.40
2017-10-16T13:07:51.675Z,86.90
2017-10-16T13:10:19.117Z,86.70
2017-10-16T13:12:46.554Z,85.10
2017-10-16T13:15:14.752Z,84.80
2017-10-16T13:17:42.201Z,84.70
2017-10-16T13:20:09.644Z,84.00
2017-10-16T13:22:37.085Z,85.50
2017-10-16T13:25:04.535Z,86.90
2017-10-16T13:27:31.961Z,85.20
2017-10-16T13:30:00.179Z,85.50
2017-10-16T13:32:27.604Z,84.80
2017-10-16T13:34:55.817Z,86.60
2017-10-16T13:37:23.258Z,86.70
2017-10-16T13:39:50.706Z,86.40
2017-10-16T13:42:18.134Z,88.50
2017-10-16T13:44:45.617Z,88.50
2017-10-16T13:47:13.052Z,85.30
2017-10-16T13:49:41.264Z,86.20
2017-10-16T13:52:08.734Z,85.40
2017-10-16T13:54:36.173Z,85.20
2017-10-16T13:57:03.645Z,87.60
2017-10-16T13:59:31.113Z,86.30
2017-10-16T14:01:58.549Z,88.00
2017-10-16T14:04:30.465Z,87.90
2017-10-16T14:06:57.900Z,87.00
2017-10-16T14:09:25.336Z,85.40
2017-10-16T14:11:52.787Z,86.40
2017-10-16T14:14:20.225Z,86.40
2017-10-16T14:16:47.989Z,85.00
2017-10-16T14:19:15.422Z,88.60
2017-10-16T14:21:42.861Z,87.70
2017-10-16T14:24:10.305Z,88.80
2017-10-16T14:26:37.745Z,88.10
2017-10-16T14:29:05.186Z,87.60
2017-10-16T14:31:32.633Z,88.10
2017-10-16T14:34:00.107Z,89.10
2017-10-16T14:36:27.545Z,89.80
2017-10-16T14:38:54.987Z,90.40
2017-10-16T14:41:23.206Z,91.30
2017-10-16T14:43:50.640Z,91.20
2017-10-16T14:46:18.076Z,91.30
2017-10-16T14:48:46.298Z,91.50
2017-10-16T14:51:13.732Z,91.40
2017-10-16T14:53:41.170Z,91.50
2017-10-16T14:56:09.376Z,91.90
2017-10-16T14:58:36.827Z,91.90
2017-10-16T15:01:04.290Z,92.10
2017-10-16T15:03:31.731Z,92.30
2017-10-16T15:05:59.168Z,92.20
2017-10-16T15:08:27.382Z,92.10
2017-10-16T15:10:54.821Z,92.10
2017-10-16T15:13:22.258Z,92.30
2017-10-16T15:15:50.467Z,92.60
2017-10-16T15:18:17.924Z,92.60
2017-10-16T15:20:45.357Z,92.70
2017-10-16T15:23:12.808Z,92.90
2017-10-16T15:25:40.996Z,93.30
2017-10-16T15:28:08.434Z,93.20
2017-10-16T15:30:36.628Z,93.40
2017-10-16T15:33:04.079Z,93.30
2017-10-16T15:35:31.519Z,93.30
2017-10-16T15:37:59.733Z,93.40
2017-10-16T15:40:27.173Z,93.30
2017-10-16T15:42:54.613Z,93.50
2017-10-16T15:45:22.821Z,94.00
2017-10-16T15:47:50.266Z,94.00
2017-10-16T15:50:17.701Z,94.00
2017-10-16T15:52:45.913Z,94.10
2017-10-16T15:55:13.349Z,94.40
2017-10-16T15:57:40.797Z,94.20
2017-10-16T16:00:08.238Z,94.30
2017-10-16T16:02:36.442Z,94.50
2017-10-16T16:05:03.884Z,94.20
2017-10-16T16:07:31.351Z,94.50
2017-10-16T16:09:59.531Z,94.50
2017-10-16T16:12:26.971Z,94.40
2017-10-16T16:14:55.204Z,94.70
2017-10-16T16:17:22.612Z,94.70
2017-10-16T16:19:50.052Z,94.80
2017-10-16T16:22:18.265Z,94.80
2017-10-16T16:24:45.700Z,94.80
2017-10-16T16:27:13.141Z,95.00
2017-10-16T16:29:41.353Z,95.00
2017-10-16T16:32:08.788Z,94.90
2017-10-16T16:34:36.238Z,95.00
2017-10-16T16:37:03.687Z,95.20
2017-10-16T16:39:31.916Z,94.70
2017-10-16T16:41:59.362Z,94.70
2017-10-16T16:44:26.815Z,95.10
2017-10-16T16:46:54.244Z,95.10
2017-10-16T16:49:21.683Z,95.20
2017-10-16T16:51:49.876Z,95.40
2017-10-16T16:54:17.313Z,95.30
2017-10-16T16:56:45.532Z,95.60
2017-10-16T16:59:12.973Z,95.60
2017-10-16T17:01:40.413Z,95.50
2017-10-16T17:04:08.620Z,95.60
2017-10-16T17:06:36.059Z,95.60
2017-10-16T17:09:03.493Z,95.40
2017-10-16T17:11:31.715Z,95.70
2017-10-16T17:13:59.174Z,95.70
2017-10-16T17:16:26.623Z,95.80
2017-10-16T17:18:54.065Z,95.70
2017-10-16T17:21:21.498Z,95.60
2017-10-16T17:23:49.692Z,95.50
2017-10-16T17:26:17.133Z,95.50
2017-10-16T17:28:45.332Z,95.60
2017-10-16T17:31:12.774Z,95.60
2017-10-16T17:33:40.214Z,95.50
2017-10-16T17:36:08.427Z,95.60
2017-10-16T17:38:35.862Z,95.60
2017-10-16T17:41:04.062Z,95.40
2017-10-16T17:43:31.497Z,95.40
2017-10-16T17:45:58.938Z,95.40
2017-10-16T17:48:27.132Z,95.40
2017-10-16T17:50:54.564Z,95.40
2017-10-16T17:53:22.756Z,95.60
2017-10-16T17:55:50.198Z,95.50
2017-10-16T17:58:18.407Z,95.50
2017-10-16T18:00:45.854Z,95.50
2017-10-16T18:03:13.293Z,95.50
2017-10-16T18:05:41.518Z,95.90
2017-10-16T18:08:08.957Z,96.00
2017-10-16T18:10:36.412Z,96.00
2017-10-16T18:13:03.849Z,96.00
2017-10-16T18:15:31.290Z,96.00
2017-10-16T18:17:59.499Z,96.60
2017-10-16T18:20:26.940Z,96.60
2017-10-16T18:22:54.390Z,96.30
2017-10-16T18:25:21.818Z,96.10
2017-10-16T18:27:49.252Z,96.30
2017-10-16T18:30:17.458Z,96.30
2017-10-16T18:32:45.676Z,96.30
2017-10-16T18:35:13.105Z,96.20
2017-10-16T18:37:41.309Z,96.00
2017-10-16T18:40:08.746Z,96.00
2017-10-16T18:42:36.198Z,96.00
2017-10-16T18:45:04.398Z,95.90
2017-10-16T18:47:31.837Z,95.90
2017-10-16T18:49:59.273Z,95.90
2017-10-16T18:52:26.708Z,96.00
2017-10-16T18:54:54.141Z,96.00
2017-10-16T18:57:21.593Z,95.80
2017-10-16T18:59:49.025Z,95.90
2017-10-16T19:02:16.465Z,95.70
2017-10-16T19:04:43.909Z,95.80
2017-10-16T19:07:12.123Z,95.50
2017-10-16T19:09:39.562Z,95.40
2017-10-16T19:12:07.001Z,95.40
2017-10-16T19:14:35.193Z,95.30
2017-10-16T19:17:02.632Z,95.30
2017-10-16T19:19:30.847Z,95.80
2017-10-16T19:21:58.296Z,95.70
2017-10-16T19:24:25.731Z,96.00
2017-10-16T19:26:53.942Z,96.00
2017-10-16T19:29:21.373Z,96.00
2017-10-16T19:31:48.809Z,96.10
2017-10-16T19:34:16.252Z,96.00
2017-10-16T19:36:43.693Z,96.00
2017-10-16T19:39:11.133Z,96.00
2017-10-16T19:41:38.574Z,96.00
2017-10-16T19:44:06.032Z,95.90
2017-10-16T19:46:33.474Z,95.80
2017-10-16T19:49:00.919Z,95.60
2017-10-16T19:51:28.367Z,95.80
2017-10-16T19:53:56.570Z,96.10
2017-10-16T19:56:25.017Z,96.10
2017-10-16T19:58:53.224Z,96.50
2017-10-16T20:01:20.671Z,96.50
2017-10-16T20:03:48.107Z,96.20
2017-10-16T20:06:16.320Z,96.10
2017-10-16T20:08:43.768Z,96.00
2017-10-16T20:11:11.202Z,95.90
2017-10-16T20:13:39.414Z,96.20
2017-10-16T20:16:06.850Z,96.20
2017-10-16T20:18:34.288Z,96.10
2017-10-16T20:21:02.510Z,96.10
2017-10-16T20:23:29.955Z,96.10
2017-10-16T20:25:57.385Z,96.00
2017-10-16T20:28:24.830Z,95.90
2017-10-16T20:30:53.039Z,95.80
2017-10-16T20:33:20.486Z,95.70
2017-10-16T20:35:47.912Z,95.70
2017-10-16T20:38:16.130Z,95.80
2017-10-16T20:40:44.559Z,95.70
2017-10-16T20:43:12.017Z,95.80
2017-10-16T20:45:40.216Z,96.00
2017-10-16T20:48:07.658Z,95.70
2017-10-16T20:50:35.879Z,95.40
2017-10-16T20:53:03.305Z,95.40
2017-10-16T20:55:30.736Z,95.50
2017-10-16T20:57:58.189Z,95.80
2017-10-16T21:00:25.616Z,95.80
2017-10-16T21:02:53.068Z,95.80
2017-10-16T21:05:20.480Z,95.60
2017-10-16T21:07:48.696Z,95.80
2017-10-16T21:10:16.142Z,95.80
2017-10-16T21:12:43.580Z,95.80
2017-10-16T21:15:11.015Z,95.90
2017-10-16T21:17:39.226Z,95.90
2017-10-16T21:20:06.649Z,95.90
2017-10-16T21:22:34.865Z,96.00
2017-10-16T21:25:02.303Z,96.00
2017-10-16T21:27:29.750Z,96.10
2017-10-16T21:29:57.951Z,95.90
2017-10-16T21:32:25.404Z,95.90
2017-10-16T21:34:52.832Z,96.10
2017-10-16T21:37:21.039Z,96.20
2017-10-16T21:39:48.476Z,96.10
2017-10-16T21:42:15.924Z,96.10
2017-10-16T21:44:44.127Z,96.10
2017-10-16T21:47:11.564Z,96.00
2017-10-16T21:49:39.001Z,96.10
2017-10-16T21:52:07.214Z,96.00
2017-10-16T21:54:34.649Z,95.90
2017-10-16T21:57:02.088Z,95.70
2017-10-16T21:59:30.299Z,95.70
2017-10-16T22:01:57.734Z,95.70
2017-10-16T22:04:25.933Z,95.50
2017-10-16T22:06:53.371Z,95.50
2017-10-16T22:09:20.813Z,95.40
2017-10-16T22:11:49.004Z,95.10
2017-10-16T22:14:16.436Z,95.20
2017-10-16T22:16:44.637Z,95.10
2017-10-16T22:19:12.083Z,95.10
2017-10-16T22:21:40.295Z,95.20
2017-10-16T22:24:07.742Z,95.20
2017-10-16T22:26:35.180Z,95.30
2017-10-16T22:29:02.622Z,95.20
2017-10-16T22:31:30.822Z,95.00
2017-10-16T22:33:58.266Z,95.00
2017-10-16T22:36:25.693Z,94.70
2017-10-16T22:38:53.189Z,95.10
2017-10-16T22:41:20.616Z,95.10
2017-10-16T22:43:48.834Z,94.90
2017-10-16T22:46:16.264Z,94.90
2017-10-16T22:48:43.699Z,94.90
2017-10-16T22:51:11.900Z,94.80
2017-10-16T22:53:39.336Z,95.10
2017-10-16T22:56:07.532Z,95.00
2017-10-16T22:58:34.978Z,95.00
2017-10-16T23:01:03.181Z,94.80
2017-10-16T23:03:30.626Z,94.80
2017-10-16T23:05:58.058Z,95.10
2017-10-16T23:08:26.270Z,95.30
2017-10-16T23:10:53.714Z,95.30
2017-10-16T23:13:21.150Z,95.50
2017-10-16T23:15:49.348Z,95.50
2017-10-16T23:18:16.785Z,95.50
2017-10-16T23:20:44.989Z,95.60
2017-10-16T23:23:12.437Z,95.60
2017-10-16T23:25:39.860Z,96.00
2017-10-16T23:28:13.885Z,95.90
2017-10-16T23:30:42.097Z,95.90
2017-10-16T23:33:09.523Z,95.90
2017-10-16T23:35:36.970Z,95.70
2017-10-16T23:38:05.177Z,95.60
2017-10-16T23:40:32.621Z,95.50
2017-10-16T23:43:00.070Z,95.40
2017-10-16T23:45:27.502Z,95.30
2017-10-16T23:47:55.711Z,95.70
2017-10-16T23:50:23.141Z,95.30
2017-10-16T23:52:51.353Z,95.20
2017-10-16T23:55:18.802Z,95.20
2017-10-16T23:57:46.220Z,95.20
